createdAt,value
2018-12-18T00:01:33.181Z,9.63
2018-12-18T00:04:08.000Z,8.07
2018-12-18T00:06:42.767Z,7.90
2018-12-18T00:09:17.767Z,9.53
2018-12-18T00:11:52.508Z,7.77
2018-12-18T00:14:27.089Z,8.73
2018-12-18T00:17:02.303Z,7.47
2018-12-18T00:19:36.797Z,9.63
2018-12-18T00:22:11.609Z,9.37
2018-12-18T00:24:46.240Z,7.07
2018-12-18T00:27:20.862Z,9.10
2018-12-18T00:29:56.150Z,7.83
2018-12-18T00:32:30.732Z,6.83
2018-12-18T00:35:05.682Z,8.77
2018-12-18T00:37:40.381Z,8.13
2018-12-18T00:40:15.112Z,7.63
2018-12-18T00:42:50.371Z,7.47
2018-12-18T00:45:25.203Z,6.60
2018-12-18T00:47:59.813Z,5.80
2018-12-18T00:50:34.572Z,6.37
2018-12-18T00:53:09.180Z,5.87
2018-12-18T00:55:43.816Z,6.83
2018-12-18T00:58:19.217Z,5.47
2018-12-18T01:00:53.691Z,6.13
2018-12-18T01:03:28.279Z,6.20
2018-12-18T01:06:02.905Z,6.73
2018-12-18T01:08:37.546Z,8.63
2018-12-18T01:11:12.279Z,8.70
2018-12-18T01:13:46.987Z,6.33
2018-12-18T01:16:21.681Z,5.27
2018-12-18T01:18:56.146Z,5.60
2018-12-18T01:21:30.759Z,4.23
2018-12-18T01:24:05.992Z,4.73
2018-12-18T01:26:40.790Z,5.83
2018-12-18T01:29:15.380Z,10.83
2018-12-18T01:31:49.992Z,9.67
2018-12-18T01:34:24.721Z,10.30
2018-12-18T01:36:59.449Z,7.77
2018-12-18T01:39:34.033Z,6.83
2018-12-18T01:42:08.805Z,4.87
2018-12-18T01:44:43.541Z,4.87
2018-12-18T01:47:18.256Z,5.37
2018-12-18T01:49:52.880Z,6.27
2018-12-18T01:52:27.508Z,4.27
2018-12-18T01:55:03.883Z,4.83
2018-12-18T01:57:38.549Z,4.33
2018-12-18T02:00:13.173Z,4.97
2018-12-18T02:02:47.844Z,3.83
2018-12-18T02:05:22.640Z,3.77
2018-12-18T02:07:57.217Z,3.70
2018-12-18T02:10:33.599Z,5.77
2018-12-18T02:13:08.313Z,3.60
2018-12-18T02:15:42.984Z,3.47
2018-12-18T02:18:17.540Z,3.40
2018-12-18T02:20:52.177Z,4.27
2018-12-18T02:23:26.809Z,4.17
2018-12-18T02:26:01.864Z,3.37
2018-12-18T02:28:36.532Z,3.93
2018-12-18T02:31:11.212Z,3.97
2018-12-18T02:33:45.940Z,3.10
2018-12-18T02:36:20.447Z,2.53
2018-12-18T02:38:55.032Z,2.93
2018-12-18T02:41:29.598Z,2.57
2018-12-18T02:44:04.265Z,2.70
2018-12-18T02:46:38.856Z,3.77
2018-12-18T02:49:13.398Z,4.17
2018-12-18T02:51:48.081Z,3.17
2018-12-18T02:54:22.698Z,2.20
2018-12-18T02:56:57.670Z,3.03
2018-12-18T02:59:32.732Z,3.00
2018-12-18T03:02:07.603Z,3.30
2018-12-18T03:04:42.720Z,3.43
2018-12-18T03:07:17.277Z,3.80
2018-12-18T03:09:51.850Z,4.07
2018-12-18T03:12:26.609Z,3.63
2018-12-18T03:15:01.192Z,4.37
2018-12-18T03:17:35.831Z,4.07
2018-12-18T03:20:10.369Z,3.93
2018-12-18T03:22:45.081Z,3.10
2018-12-18T03:25:19.627Z,3.77
2018-12-18T03:27:54.220Z,3.43
2018-12-18T03:30:28.943Z,30.23
2018-12-18T03:33:04.002Z,9.67
2018-12-18T03:35:38.732Z,3.97
2018-12-18T03:38:13.357Z,6.27
2018-12-18T03:40:48.049Z,15.60
2018-12-18T03:43:22.648Z,24.17
2018-12-18T03:45:57.447Z,6.67
2018-12-18T03:48:32.141Z,5.80
2018-12-18T03:51:06.864Z,3.53
2018-12-18T03:53:41.643Z,3.30
2018-12-18T03:56:16.396Z,4.63
2018-12-18T03:58:51.016Z,2.60
2018-12-18T04:01:25.712Z,2.77
2018-12-18T04:04:00.262Z,3.13
2018-12-18T04:06:34.855Z,6.93
2018-12-18T04:09:09.536Z,3.83
2018-12-18T04:11:49.623Z,4.10
2018-12-18T04:14:24.333Z,3.00
2018-12-18T04:16:58.909Z,2.80
2018-12-18T04:19:33.509Z,3.03
2018-12-18T04:22:08.123Z,5.10
2018-12-18T04:24:42.795Z,4.23
2018-12-18T04:27:17.440Z,4.60
2018-12-18T04:29:52.070Z,3.80
2018-12-18T04:32:26.645Z,3.87
2018-12-18T04:35:01.482Z,5.13
2018-12-18T04:37:36.401Z,4.10
2018-12-18T04:40:11.121Z,4.47
2018-12-18T04:42:45.646Z,5.83
2018-12-18T04:45:20.253Z,6.13
2018-12-18T04:47:55.516Z,8.70
2018-12-18T04:50:30.058Z,6.17
2018-12-18T04:53:04.867Z,18.60
2018-12-18T04:55:39.571Z,53.17
2018-12-18T04:58:14.313Z,67.87
2018-12-18T05:00:49.166Z,39.73
2018-12-18T05:03:23.974Z,23.13
2018-12-18T05:05:58.714Z,29.57
2018-12-18T05:08:33.491Z,20.60
2018-12-18T05:11:08.175Z,13.20
2018-12-18T05:13:42.992Z,6.20
2018-12-18T05:16:17.743Z,5.43
2018-12-18T05:18:52.368Z,4.53
2018-12-18T05:21:27.196Z,6.47
2018-12-18T05:24:01.838Z,5.30
2018-12-18T05:26:36.764Z,7.50
2018-12-18T05:29:11.494Z,6.47
2018-12-18T05:31:46.219Z,5.97
2018-12-18T05:34:20.849Z,7.30
2018-12-18T05:36:55.474Z,4.80
2018-12-18T05:39:30.165Z,4.83
2018-12-18T05:42:04.878Z,3.87
2018-12-18T05:44:39.422Z,5.37
2018-12-18T05:47:14.111Z,4.53
2018-12-18T05:49:48.827Z,3.83
2018-12-18T05:52:23.395Z,4.93
2018-12-18T05:54:58.309Z,3.73
2018-12-18T05:57:32.854Z,4.43
2018-12-18T06:00:07.467Z,5.20
2018-12-18T06:02:42.038Z,5.97
2018-12-18T06:05:16.695Z,9.20
2018-12-18T06:07:51.343Z,7.03
2018-12-18T06:10:25.997Z,5.97
2018-12-18T06:13:00.637Z,4.70
2018-12-18T06:15:35.372Z,4.50
2018-12-18T06:18:10.094Z,7.33
2018-12-18T06:20:44.735Z,5.27
2018-12-18T06:23:19.512Z,5.10
2018-12-18T06:25:54.107Z,6.57
2018-12-18T06:28:28.905Z,18.47
2018-12-18T06:31:03.922Z,7.60
2018-12-18T06:33:38.689Z,11.60
2018-12-18T06:36:13.330Z,11.60
2018-12-18T06:38:48.125Z,15.17
2018-12-18T06:41:22.850Z,13.20
2018-12-18T06:43:57.473Z,14.23
2018-12-18T06:46:32.126Z,12.57
2018-12-18T06:49:06.682Z,8.07
2018-12-18T06:51:41.459Z,4.37
2018-12-18T06:54:16.140Z,5.63
2018-12-18T06:56:50.780Z,3.90
2018-12-18T06:59:25.512Z,6.33
2018-12-18T07:02:00.481Z,3.17
2018-12-18T07:04:35.071Z,3.50
2018-12-18T07:07:09.656Z,5.73
2018-12-18T07:09:44.205Z,3.07
2018-12-18T07:12:18.839Z,5.03
2018-12-18T07:14:53.630Z,3.77
2018-12-18T07:17:28.478Z,3.97
2018-12-18T07:20:03.377Z,4.87
2018-12-18T07:22:38.032Z,4.53
2018-12-18T07:25:12.715Z,3.70
2018-12-18T07:27:47.491Z,5.17
2018-12-18T07:30:22.178Z,8.33
2018-12-18T07:32:56.948Z,7.80
2018-12-18T07:35:31.501Z,6.73
2018-12-18T07:38:06.028Z,6.53
2018-12-18T07:40:40.948Z,6.60
2018-12-18T07:43:15.564Z,7.37
2018-12-18T07:45:50.263Z,19.23
2018-12-18T07:48:24.924Z,27.43
2018-12-18T07:50:59.585Z,34.70
2018-12-18T07:53:35.415Z,22.43
2018-12-18T07:56:10.636Z,17.17
2018-12-18T07:58:45.112Z,33.17
2018-12-18T08:01:19.788Z,25.13
2018-12-18T08:03:54.428Z,32.87
2018-12-18T08:06:29.035Z,24.60
2018-12-18T08:09:04.209Z,10.80
2018-12-18T08:11:38.963Z,10.83
2018-12-18T08:14:13.738Z,13.37
2018-12-18T08:16:48.363Z,12.47
2018-12-18T08:19:23.095Z,9.57
2018-12-18T08:21:57.721Z,10.40
2018-12-18T08:24:32.272Z,11.77
2018-12-18T08:27:07.321Z,8.00
2018-12-18T08:29:41.861Z,11.37
2018-12-18T08:32:16.645Z,9.20
2018-12-18T08:34:51.272Z,9.90
2018-12-18T08:37:26.008Z,8.47
2018-12-18T08:40:00.847Z,8.17
2018-12-18T08:42:35.670Z,9.83
2018-12-18T08:45:10.513Z,10.57
2018-12-18T08:47:45.033Z,8.20
2018-12-18T08:50:19.869Z,7.80
2018-12-18T08:52:54.512Z,12.73
2018-12-18T08:55:29.298Z,8.33
2018-12-18T08:58:04.035Z,6.93
2018-12-18T09:00:38.744Z,7.93
2018-12-18T09:03:13.333Z,6.50
2018-12-18T09:05:48.271Z,6.13
2018-12-18T09:08:22.890Z,7.03
2018-12-18T09:10:57.727Z,6.30
2018-12-18T09:13:32.937Z,8.10
2018-12-18T09:16:09.414Z,8.47
2018-12-18T09:18:44.138Z,8.07
2018-12-18T09:21:18.875Z,7.40
2018-12-18T09:23:53.551Z,7.87
2018-12-18T09:26:28.289Z,9.53
2018-12-18T09:29:02.970Z,10.93
2018-12-18T09:31:37.731Z,9.50
2018-12-18T09:34:12.515Z,9.97
2018-12-18T09:36:47.208Z,8.87
2018-12-18T09:39:23.528Z,9.60
2018-12-18T09:42:00.520Z,10.00
2018-12-18T09:44:35.881Z,11.65
2018-12-18T09:47:11.176Z,11.85
2018-12-18T09:49:46.308Z,11.55
2018-12-18T09:52:22.168Z,11.33
2018-12-18T09:54:57.532Z,11.48
2018-12-18T10:15:34.787Z,11.83
2018-12-18T10:18:10.084Z,10.25
2018-12-18T10:20:45.245Z,9.85
2018-12-18T10:23:20.442Z,9.83
2018-12-18T10:25:55.812Z,9.80
2018-12-18T10:28:31.002Z,8.85
2018-12-18T10:31:06.063Z,8.95
2018-12-18T10:33:41.337Z,9.70
2018-12-18T10:36:16.492Z,10.05
2018-12-18T10:38:51.787Z,9.63
2018-12-18T10:41:27.032Z,9.33
2018-12-18T10:44:02.225Z,8.05
2018-12-18T10:46:37.599Z,8.50
2018-12-18T10:49:12.955Z,8.20
2018-12-18T10:51:48.265Z,8.35
2018-12-18T10:54:23.332Z,8.65
2018-12-18T10:56:58.671Z,8.15
2018-12-18T10:59:34.033Z,7.40
2018-12-18T11:02:09.458Z,6.65
2018-12-18T11:04:44.790Z,7.00
2018-12-18T11:07:19.975Z,7.78
2018-12-18T11:09:54.910Z,7.30
2018-12-18T11:12:35.654Z,7.30
2018-12-18T11:15:10.359Z,7.53
2018-12-18T11:17:45.377Z,7.25
2018-12-18T11:20:20.122Z,6.95
2018-12-18T11:22:54.939Z,6.90
2018-12-18T11:25:30.232Z,6.35
2018-12-18T11:28:05.527Z,6.53
2018-12-18T11:30:40.725Z,7.12
2018-12-18T11:33:16.053Z,10.00
2018-12-18T11:35:51.332Z,14.98
2018-12-18T11:38:26.414Z,18.50
2018-12-18T11:41:01.621Z,8.03
2018-12-18T11:43:36.790Z,7.87
2018-12-18T11:46:12.203Z,7.70
2018-12-18T11:48:47.492Z,8.20
2018-12-18T11:51:22.967Z,8.68
2018-12-18T11:53:58.240Z,8.25
2018-12-18T11:56:33.454Z,8.05
2018-12-18T11:59:08.796Z,8.38
2018-12-18T12:01:44.884Z,7.87
2018-12-18T12:04:19.984Z,7.97
2018-12-18T12:06:55.229Z,7.25
2018-12-18T12:09:30.595Z,7.50
2018-12-18T12:12:05.713Z,6.97
2018-12-18T12:14:41.536Z,7.28
2018-12-18T12:17:16.991Z,7.60
2018-12-18T12:19:52.435Z,7.03
2018-12-18T12:22:27.783Z,8.53
2018-12-18T12:25:03.883Z,8.05
2018-12-18T12:30:41.382Z,7.75
2018-12-18T12:33:16.701Z,7.30
2018-12-18T12:35:52.056Z,6.67
2018-12-18T12:38:27.302Z,7.40
2018-12-18T12:41:02.590Z,6.83
2018-12-18T12:43:38.680Z,6.80
2018-12-18T12:46:13.797Z,7.25
2018-12-18T12:48:53.973Z,7.33
2018-12-18T12:51:29.314Z,6.90
2018-12-18T12:54:04.549Z,6.47
2018-12-18T12:56:39.785Z,8.48
2018-12-18T12:59:14.903Z,8.63
2018-12-18T13:01:50.236Z,8.20
2018-12-18T13:04:25.496Z,7.80
2018-12-18T13:07:00.740Z,8.15
2018-12-18T13:09:36.014Z,8.33
2018-12-18T13:12:11.109Z,8.68
2018-12-18T13:14:46.253Z,8.20
2018-12-18T13:17:21.734Z,8.60
2018-12-18T13:19:56.956Z,9.10
2018-12-18T13:22:32.301Z,8.88
2018-12-18T13:25:07.448Z,8.80
2018-12-18T13:27:42.647Z,8.40
2018-12-18T13:30:18.012Z,9.40
2018-12-18T13:32:53.455Z,10.15
2018-12-18T13:35:28.782Z,9.88
2018-12-18T13:38:03.954Z,9.25
2018-12-18T13:40:39.470Z,10.25
2018-12-18T13:43:14.805Z,10.53
2018-12-18T13:45:50.069Z,10.72
2018-12-18T13:48:25.322Z,11.57
2018-12-18T13:51:00.794Z,10.80
2018-12-18T13:53:36.038Z,10.88
2018-12-18T13:56:11.267Z,10.68
2018-12-18T13:58:46.474Z,10.48
2018-12-18T14:01:21.712Z,11.30
2018-12-18T14:03:56.928Z,11.55
2018-12-18T14:06:32.204Z,10.78
2018-12-18T14:09:08.027Z,11.20
2018-12-18T14:11:43.579Z,10.93
2018-12-18T14:14:18.669Z,10.50
2018-12-18T14:16:53.867Z,10.65
2018-12-18T14:19:28.994Z,10.35
2018-12-18T14:22:04.213Z,9.73
2018-12-18T14:24:39.376Z,10.48
2018-12-18T14:27:13.952Z,9.50
2018-12-18T14:29:48.779Z,8.97
2018-12-18T14:32:23.344Z,10.77
2018-12-18T14:34:58.096Z,10.50
2018-12-18T14:37:32.674Z,10.47
2018-12-18T14:40:07.290Z,9.87
2018-12-18T14:42:42.410Z,10.98
2018-12-18T14:45:16.976Z,9.90
2018-12-18T14:47:51.704Z,9.77
2018-12-18T14:50:26.417Z,10.57
2018-12-18T14:53:01.208Z,9.03
2018-12-18T14:55:35.676Z,8.80
2018-12-18T14:58:10.339Z,8.37
2018-12-18T15:00:45.488Z,8.30
2018-12-18T15:03:20.030Z,9.27
2018-12-18T15:05:54.827Z,7.83
2018-12-18T15:08:29.370Z,9.40
2018-12-18T15:11:04.282Z,11.83
2018-12-18T15:13:39.326Z,10.65
2018-12-18T15:16:14.224Z,9.93
2018-12-18T15:18:49.313Z,10.78
2018-12-18T15:21:24.028Z,9.68
2018-12-18T15:23:58.967Z,10.63
2018-12-18T15:26:33.887Z,12.03
2018-12-18T15:29:08.770Z,10.35
2018-12-18T15:31:43.699Z,10.43
2018-12-18T15:34:18.561Z,8.80
2018-12-18T15:36:53.253Z,8.60
2018-12-18T15:39:27.903Z,5.13
2018-12-18T15:42:02.499Z,5.60
2018-12-18T15:44:37.494Z,7.53
2018-12-18T15:47:12.169Z,7.43
2018-12-18T15:49:46.616Z,7.07
2018-12-18T15:52:21.236Z,21.07
2018-12-18T15:54:55.917Z,13.70
2018-12-18T15:57:30.648Z,10.00
2018-12-18T16:00:06.030Z,7.93
2018-12-18T16:02:40.641Z,8.83
2018-12-18T16:05:15.248Z,7.40
2018-12-18T16:07:50.011Z,4.83
2018-12-18T16:10:24.553Z,6.60
2018-12-18T16:12:59.359Z,6.13
2018-12-18T16:15:33.974Z,5.03
2018-12-18T16:18:08.612Z,4.23
2018-12-18T16:20:43.349Z,3.27
2018-12-18T16:23:18.160Z,3.67
2018-12-18T16:25:52.874Z,3.80
2018-12-18T16:28:27.350Z,4.00
2018-12-18T16:31:01.954Z,3.93
2018-12-18T16:33:36.707Z,3.83
2018-12-18T16:36:11.281Z,4.27
2018-12-18T16:38:46.164Z,5.63
2018-12-18T16:41:20.810Z,5.87
2018-12-18T16:43:55.593Z,6.27
2018-12-18T16:46:30.620Z,6.53
2018-12-18T16:49:05.243Z,13.40
2018-12-18T16:51:39.920Z,9.97
2018-12-18T16:54:14.750Z,17.13
2018-12-18T16:56:49.725Z,14.43
2018-12-18T16:59:24.475Z,14.97
2018-12-18T17:02:00.216Z,43.10
2018-12-18T17:04:34.931Z,34.47
2018-12-18T17:07:09.470Z,24.30
2018-12-18T17:09:44.227Z,17.03
2018-12-18T17:12:18.899Z,20.17
2018-12-18T17:14:53.546Z,19.97
2018-12-18T17:17:28.236Z,28.20
2018-12-18T17:20:03.022Z,26.57
2018-12-18T17:22:37.632Z,23.57
2018-12-18T17:25:12.244Z,21.73
2018-12-18T17:27:46.876Z,19.43
2018-12-18T17:30:21.556Z,13.53
2018-12-18T17:32:56.132Z,16.23
2018-12-18T17:35:30.713Z,13.17
2018-12-18T17:38:05.485Z,10.70
2018-12-18T17:40:40.473Z,14.03
2018-12-18T17:43:15.172Z,13.17
2018-12-18T17:45:49.775Z,13.07
2018-12-18T17:48:24.432Z,13.80
2018-12-18T17:50:59.017Z,14.07
2018-12-18T17:53:33.666Z,13.90
2018-12-18T17:56:08.331Z,10.93
2018-12-18T17:58:43.055Z,9.00
2018-12-18T18:01:17.648Z,8.47
2018-12-18T18:03:52.234Z,8.10
2018-12-18T18:06:26.826Z,8.83
2018-12-18T18:09:01.726Z,9.90
2018-12-18T18:11:36.496Z,8.03
2018-12-18T18:14:11.101Z,21.00
2018-12-18T18:16:45.760Z,13.10
2018-12-18T18:19:20.319Z,10.57
2018-12-18T18:21:54.871Z,14.33
2018-12-18T18:24:29.426Z,10.57
2018-12-18T18:27:04.429Z,19.10
2018-12-18T18:29:39.411Z,12.27
2018-12-18T18:32:13.969Z,18.63
2018-12-18T18:34:48.737Z,25.53
2018-12-18T18:37:23.468Z,19.07
2018-12-18T18:39:58.002Z,11.87
2018-12-18T18:42:32.727Z,26.87
2018-12-18T18:45:07.638Z,26.63
2018-12-18T18:47:42.980Z,14.10
2018-12-18T18:50:17.468Z,9.77
2018-12-18T18:52:52.065Z,8.57
2018-12-18T18:55:27.223Z,7.40
2018-12-18T18:58:02.018Z,9.03
2018-12-18T19:00:36.712Z,10.60
2018-12-18T19:03:11.527Z,16.63
2018-12-18T19:05:46.789Z,14.27
2018-12-18T19:08:21.542Z,12.00
2018-12-18T19:10:56.237Z,16.10
2018-12-18T19:13:30.997Z,13.40
2018-12-18T19:16:05.708Z,12.43
2018-12-18T19:18:40.387Z,21.67
2018-12-18T19:21:14.876Z,14.67
2018-12-18T19:23:49.727Z,22.87
2018-12-18T19:26:24.365Z,15.97
2018-12-18T19:28:59.015Z,18.27
2018-12-18T19:31:33.646Z,15.67
2018-12-18T19:34:08.458Z,17.30
2018-12-18T19:36:43.487Z,21.80
2018-12-18T19:39:18.739Z,19.87
2018-12-18T19:41:53.231Z,16.37
2018-12-18T19:44:28.096Z,18.57
2018-12-18T19:47:02.973Z,15.50
2018-12-18T19:49:37.711Z,14.50
2018-12-18T19:52:12.351Z,15.90
2018-12-18T19:54:47.174Z,17.57
2018-12-18T19:57:21.837Z,16.13
2018-12-18T19:59:56.609Z,16.83
2018-12-18T20:02:31.378Z,12.67
2018-12-18T20:05:06.633Z,12.47
2018-12-18T20:07:41.352Z,13.63
2018-12-18T20:10:16.139Z,13.57
2018-12-18T20:12:50.870Z,16.17
2018-12-18T20:15:25.674Z,14.57
2018-12-18T20:18:00.355Z,16.27
2018-12-18T20:20:35.138Z,14.70
2018-12-18T20:23:09.766Z,14.93
2018-12-18T20:25:45.017Z,15.27
2018-12-18T20:28:19.648Z,19.13
2018-12-18T20:30:54.229Z,17.37
2018-12-18T20:33:28.924Z,16.13
2018-12-18T20:36:03.427Z,17.63
2018-12-18T20:38:38.225Z,18.73
2018-12-18T20:41:12.959Z,13.67
2018-12-18T20:43:47.690Z,17.17
2018-12-18T20:46:22.437Z,16.50
2018-12-18T20:48:57.133Z,15.97
2018-12-18T20:51:32.298Z,14.53
2018-12-18T20:54:07.023Z,16.13
2018-12-18T20:56:41.530Z,14.60
2018-12-18T20:59:16.445Z,13.73
2018-12-18T21:01:51.118Z,13.30
2018-12-18T21:04:25.888Z,11.17
2018-12-18T21:07:00.589Z,13.93
2018-12-18T21:09:35.333Z,12.33
2018-12-18T21:12:10.008Z,12.03
2018-12-18T21:14:44.665Z,12.53
2018-12-18T21:17:19.387Z,10.03
2018-12-18T21:19:54.157Z,9.67
2018-12-18T21:22:28.722Z,7.70
2018-12-18T21:25:03.811Z,10.43
2018-12-18T21:27:38.514Z,10.17
2018-12-18T21:30:13.125Z,9.40
2018-12-18T21:32:47.941Z,9.33
2018-12-18T21:35:22.530Z,12.47
2018-12-18T21:37:57.149Z,9.83
2018-12-18T21:40:31.794Z,10.63
2018-12-18T21:43:06.612Z,12.00
2018-12-18T21:45:41.357Z,8.20
2018-12-18T21:48:16.046Z,9.13
2018-12-18T21:50:50.878Z,8.33
2018-12-18T21:53:25.436Z,7.87
2018-12-18T21:56:00.063Z,14.20
2018-12-18T21:58:34.767Z,13.80
2018-12-18T22:01:09.874Z,18.50
2018-12-18T22:03:44.567Z,15.67
2018-12-18T22:06:19.257Z,10.23
2018-12-18T22:08:53.917Z,11.73
2018-12-18T22:11:28.762Z,11.20
2018-12-18T22:14:03.308Z,8.63
2018-12-18T22:16:38.252Z,8.87
2018-12-18T22:19:12.864Z,7.27
2018-12-18T22:21:47.531Z,6.80
2018-12-18T22:24:22.308Z,6.60
2018-12-18T22:26:57.849Z,8.70
2018-12-18T22:29:32.382Z,10.20
2018-12-18T22:32:07.055Z,8.43
2018-12-18T22:34:41.871Z,8.53
2018-12-18T22:37:16.681Z,10.30
2018-12-18T22:39:51.331Z,5.63
2018-12-18T22:42:26.085Z,7.53
2018-12-18T22:45:01.094Z,5.90
2018-12-18T22:47:35.719Z,7.77
2018-12-18T22:50:10.429Z,7.27
2018-12-18T22:52:45.094Z,6.20
2018-12-18T22:55:19.767Z,7.37
2018-12-18T22:57:54.994Z,6.67
2018-12-18T23:00:35.233Z,9.47
2018-12-18T23:03:09.955Z,7.73
2018-12-18T23:05:44.616Z,9.80
2018-12-18T23:08:19.273Z,7.10
2018-12-18T23:10:53.925Z,8.53
2018-12-18T23:13:28.729Z,7.27
2018-12-18T23:16:03.368Z,9.10
2018-12-18T23:18:37.923Z,8.53
2018-12-18T23:21:12.724Z,6.97
2018-12-18T23:23:47.391Z,7.20
2018-12-18T23:26:22.211Z,7.60
2018-12-18T23:28:56.890Z,6.80
2018-12-18T23:31:31.673Z,7.57
2018-12-18T23:34:06.195Z,7.03
2018-12-18T23:36:40.862Z,7.30
2018-12-18T23:39:15.707Z,6.90
2018-12-18T23:41:51.132Z,8.60
2018-12-18T23:44:25.851Z,5.80
2018-12-18T23:47:00.476Z,6.03
2018-12-18T23:49:35.222Z,9.37
2018-12-18T23:52:10.240Z,5.70
2018-12-18T23:54:45.117Z,6.97
2018-12-18T23:57:19.894Z,7.17
2018-12-18T23:59:54.420Z,7.73
